Resums METAR propers

 

LELL - Sabadell, Spain
DistÓncia des de l'estaciˇ: E 18km
Actualitzaciˇ: 23/05/2018 03:00
SerÚ
SerÚ
 Vent del O
Vent: O 6 km/h
Temperatura: 13°C
Rosada: 12°C
Humitat: 94%
Bar˛metre: 1017 hPa
Nuvolositat: SerÚ
Visibilitat: 8 km
2018/05/23 01:00 LELL 230100Z AUTO 28003KT 8000 NCD 13/12 Q1017
LEBL - Barcelona Airpor, Spain
DistÓncia des de l'estaciˇ: SSE 33km
Actualitzaciˇ: 23/05/2018 03:00
Alguns n˙vols
Alguns n˙vols
 Vent del NO
Vent: NO 9 km/h
Temperatura: 17°C
Rosada: 14°C
Humitat: 83%
Bar˛metre: 1017 hPa
Nuvolositat: Alguns n˙vols
Visibilitat: 9 km
Detalls nuvolositat: Alguns n˙vols 305 m
2018/05/23 01:00 LEBL 230100Z 31005KT 9000 FEW010 17/14 Q1017 NOSIG
LERS - Reus (civ/Mil), Spain
DistÓncia des de l'estaciˇ: SO 75km
Actualitzaciˇ: 23/05/2018 03:00
Alguns n˙vols
Alguns n˙vols
 Vent del N
Vent: N 6 km/h
Temperatura: 17°C
Rosada: 16°C
Humitat: 94%
Bar˛metre: 1016 hPa
Nuvolositat: Alguns n˙vols
Visibilitat: 7 km
Detalls nuvolositat: Alguns n˙vols 244 m
2018/05/23 01:00 LERS 230100Z AUTO 36003KT 7000 FEW008/// 17/16 Q1016
 
LEGE - Gerona/Costa Bra, Spain
DistÓncia des de l'estaciˇ: ENE 83km
Actualitzaciˇ: 23/05/2018 03:00
Alguns n˙vols
Alguns n˙vols
 Vent del OSO
Vent: OSO 6 km/h
Temperatura: 12°C
Rosada: 12°C
Humitat: 100%
Bar˛metre: 1016 hPa
Nuvolositat: Alguns n˙vols
Visibilitat: 10 km
Detalls nuvolositat: Alguns n˙vols 457 m
2018/05/23 01:00 LEGE 230100Z 25003KT 190V280 9999 FEW015 12/12 Q1016
LFMP - Perpignan/Rivesa, France
DistÓncia des de l'estaciˇ: NNE 155km
Actualitzaciˇ: 23/05/2018 03:00
SerÚ
SerÚ
 Vent del OSO
Vent: OSO 6 km/h
Temperatura: 15°C
Rosada: 12°C
Humitat: 82%
Bar˛metre: 1016 hPa
Resum: SerÚ
Visibilitat: major de 10 km
2018/05/23 01:00 LFMP 230100Z AUTO 25003KT CAVOK 15/12 Q1016
LFMK - Carcassonne/Salv, France
DistÓncia des de l'estaciˇ: N 191km
Actualitzaciˇ: 23/05/2018 03:00
SerÚ
SerÚ
 Vent del varies
Vent: varies 4 km/h
Temperatura: 13°C
Rosada: 12°C
Humitat: 94%
Bar˛metre: 1016 hPa
Resum: SerÚ
Visibilitat: major de 10 km
2018/05/23 01:00 LFMK 230100Z AUTO VRB02KT CAVOK 13/12 Q1016
 
LEHC - Huesca-Pirineos, Spain
DistÓncia des de l'estaciˇ: ONO 193km
Actualitzaciˇ: 23/05/2018 03:00
SerÚ
SerÚ
 Vent del varies
Vent: varies 4 km/h
Temperatura: 13°C
Rosada: 9°C
Humitat: 77%
Bar˛metre: 1017 hPa
Nuvolositat: SerÚ
Visibilitat: 10 km
2018/05/23 01:00 LEHC 230100Z AUTO VRB02KT 9999 NCD 13/09 Q1017
LFMU - Beziers/Vias, France
DistÓncia des de l'estaciˇ: NNE 232km
Actualitzaciˇ: 23/05/2018 03:00
Parcialment cobert
Parcialment cobert
 Vent del ONO
Vent: ONO 6 km/h
Temperatura: 14°C
Rosada: 13°C
Humitat: 94%
Bar˛metre: 1016 hPa
Nuvolositat: Parcialment cobert
Visibilitat: 6 km
2018/05/23 01:00 LFMU 230100Z AUTO 29003KT 6000 NSC 14/13 Q1016
LEPA - Palma De Mallorc, Spain
DistÓncia des de l'estaciˇ: SSE 233km
Actualitzaciˇ: 23/05/2018 03:00
N˙vols i clarianes
N˙vols i clarianes
 Vent del calm
Vent: Calma
Temperatura: 16°C
Rosada: 16°C
Humitat: 100%
Bar˛metre: 1017 hPa
Nuvolositat: N˙vols i clarianes
Visibilitat: 10 km
Detalls nuvolositat: Parcialment cobert 244 m
N˙vols i clarianes 488 m
2018/05/23 01:00 LEPA 230100Z 00000KT 9999 4900N SCT008 BKN016 16/16 Q1017 NOSIG
 
LFBO - Toulouse/Blagnac, France
DistÓncia des de l'estaciˇ: N 236km
Actualitzaciˇ: 23/05/2018 03:00
SerÚ
SerÚ
 Vent del OSO
Vent: OSO 6 km/h
Temperatura: 15°C
Rosada: 12°C
Humitat: 82%
Bar˛metre: 1016 hPa
Resum: SerÚ
Visibilitat: major de 10 km
2018/05/23 01:00 LFBO 230100Z AUTO 24003KT CAVOK 15/12 Q1016
LFBT - Tarbes/Ossun, France
DistÓncia des de l'estaciˇ: NO 239km
Actualitzaciˇ: 23/05/2018 03:00
N˙vols i clarianes
N˙vols i clarianes
 Vent del SSE
Vent: SSE 7 km/h
Temperatura: 13°C
Rosada: 12°C
Humitat: 94%
Bar˛metre: 1017 hPa
Nuvolositat: N˙vols i clarianes
Visibilitat: 10 km
Detalls nuvolositat: N˙vols i clarianes 2560 m
N˙vols i clarianes 7315 m
2018/05/23 01:00 LFBT 230100Z AUTO 16004KT 9999 BKN084 BKN240 13/12 Q1017
LEZG - Zaragoza (mil/Ci, Spain
DistÓncia des de l'estaciˇ: O 242km
Actualitzaciˇ: 23/05/2018 03:00
Alguns n˙vols
Alguns n˙vols
 Vent del ONO
Vent: ONO 13 km/h
Temperatura: 16°C
Rosada: 11°C
Humitat: 72%
Bar˛metre: 1016 hPa
Nuvolositat: Alguns n˙vols
Visibilitat: 10 km
Detalls nuvolositat: Alguns n˙vols 1524 m
2018/05/23 01:00 LEZG 230100Z 29007KT 9999 FEW050 16/11 Q1016